sensor_id;sensor_type;location;lat;lon;timestamp;temperature;humidity
53272;DHT22;39160;48.580;7.756;2023-07-29T00:01:34;22.20;99.90
53272;DHT22;39160;48.580;7.756;2023-07-29T00:06:25;22.10;99.90
53272;DHT22;39160;48.580;7.756;2023-07-29T00:11:15;22.20;99.90
53272;DHT22;39160;48.580;7.756;2023-07-29T00:16:06;22.30;99.90
53272;DHT22;39160;48.580;7.756;2023-07-29T00:20:57;22.20;99.90
53272;DHT22;39160;48.580;7.756;2023-07-29T00:25:48;22.10;99.90
53272;DHT22;39160;48.580;7.756;2023-07-29T00:30:38;22.00;99.90
53272;DHT22;39160;48.580;7.756;2023-07-29T00:35:29;22.10;99.90
53272;DHT22;39160;48.580;7.756;2023-07-29T00:40:21;22.20;99.90
53272;DHT22;39160;48.580;7.756;2023-07-29T00:45:12;22.20;99.90
53272;DHT22;39160;48.580;7.756;2023-07-29T00:50:03;22.10;99.90
53272;DHT22;39160;48.580;7.756;2023-07-29T00:54:54;22.10;99.90
53272;DHT22;39160;48.580;7.756;2023-07-29T00:59:45;22.10;99.90
53272;DHT22;39160;48.580;7.756;2023-07-29T01:04:35;22.10;99.90
53272;DHT22;39160;48.580;7.756;2023-07-29T01:24:45;21.90;99.90
53272;DHT22;39160;48.580;7.756;2023-07-29T01:29:36;21.90;99.90
53272;DHT22;39160;48.580;7.756;2023-07-29T01:34:30;22.00;99.90
53272;DHT22;39160;48.580;7.756;2023-07-29T01:39:23;21.90;99.90
53272;DHT22;39160;48.580;7.756;2023-07-29T01:44:18;21.80;99.90
53272;DHT22;39160;48.580;7.756;2023-07-29T01:49:08;21.90;99.90
53272;DHT22;39160;48.580;7.756;2023-07-29T01:53:59;21.80;99.90
53272;DHT22;39160;48.580;7.756;2023-07-29T01:58:50;21.80;99.90
53272;DHT22;39160;48.580;7.756;2023-07-29T02:03:40;21.90;99.90
53272;DHT22;39160;48.580;7.756;2023-07-29T02:08:31;21.90;99.90
53272;DHT22;39160;48.580;7.756;2023-07-29T02:13:22;21.80;99.90
53272;DHT22;39160;48.580;7.756;2023-07-29T02:18:12;21.80;99.90
53272;DHT22;39160;48.580;7.756;2023-07-29T02:23:03;21.80;99.90
53272;DHT22;39160;48.580;7.756;2023-07-29T02:27:54;21.80;99.90
53272;DHT22;39160;48.580;7.756;2023-07-29T02:32:44;21.80;99.90
53272;DHT22;39160;48.580;7.756;2023-07-29T02:37:35;21.90;99.90
53272;DHT22;39160;48.580;7.756;2023-07-29T02:42:25;21.90;99.90
53272;DHT22;39160;48.580;7.756;2023-07-29T02:47:16;21.70;99.90
53272;DHT22;39160;48.580;7.756;2023-07-29T02:52:07;21.80;99.90
53272;DHT22;39160;48.580;7.756;2023-07-29T02:56:58;21.70;99.90
53272;DHT22;39160;48.580;7.756;2023-07-29T03:01:48;21.70;99.90
53272;DHT22;39160;48.580;7.756;2023-07-29T03:06:39;21.60;99.90
53272;DHT22;39160;48.580;7.756;2023-07-29T03:11:30;21.70;99.90
53272;DHT22;39160;48.580;7.756;2023-07-29T03:16:21;21.40;99.90
53272;DHT22;39160;48.580;7.756;2023-07-29T03:21:12;21.40;99.90
53272;DHT22;39160;48.580;7.756;2023-07-29T03:26:04;21.50;99.90
53272;DHT22;39160;48.580;7.756;2023-07-29T03:31:00;21.40;99.90
53272;DHT22;39160;48.580;7.756;2023-07-29T03:35:51;21.50;99.90
53272;DHT22;39160;48.580;7.756;2023-07-29T03:40:42;21.60;99.90
53272;DHT22;39160;48.580;7.756;2023-07-29T03:45:33;21.60;99.90
53272;DHT22;39160;48.580;7.756;2023-07-29T03:50:24;21.70;99.90
53272;DHT22;39160;48.580;7.756;2023-07-29T03:55:15;21.70;99.90
53272;DHT22;39160;48.580;7.756;2023-07-29T04:00:06;21.60;99.90
53272;DHT22;39160;48.580;7.756;2023-07-29T04:04:57;21.60;99.90
53272;DHT22;39160;48.580;7.756;2023-07-29T04:09:47;21.70;99.90
53272;DHT22;39160;48.580;7.756;2023-07-29T04:14:39;21.60;99.90
53272;DHT22;39160;48.580;7.756;2023-07-29T04:19:30;21.60;99.90
53272;DHT22;39160;48.580;7.756;2023-07-29T04:24:20;21.60;99.90
53272;DHT22;39160;48.580;7.756;2023-07-29T04:29:13;21.60;99.90
53272;DHT22;39160;48.580;7.756;2023-07-29T04:34:05;21.60;99.90
53272;DHT22;39160;48.580;7.756;2023-07-29T04:38:55;21.60;99.90
53272;DHT22;39160;48.580;7.756;2023-07-29T04:43:46;21.50;99.90
53272;DHT22;39160;48.580;7.756;2023-07-29T04:48:37;21.60;99.90
53272;DHT22;39160;48.580;7.756;2023-07-29T04:53:27;21.50;99.90
53272;DHT22;39160;48.580;7.756;2023-07-29T04:58:18;21.50;99.90
53272;DHT22;39160;48.580;7.756;2023-07-29T05:03:08;21.50;99.90
53272;DHT22;39160;48.580;7.756;2023-07-29T05:07:59;21.50;99.90
53272;DHT22;39160;48.580;7.756;2023-07-29T05:12:50;21.50;99.90
53272;DHT22;39160;48.580;7.756;2023-07-29T05:17:41;21.40;99.90
53272;DHT22;39160;48.580;7.756;2023-07-29T05:22:34;21.30;99.90
53272;DHT22;39160;48.580;7.756;2023-07-29T05:27:25;21.40;99.90
53272;DHT22;39160;48.580;7.756;2023-07-29T05:32:16;21.40;99.90
53272;DHT22;39160;48.580;7.756;2023-07-29T05:37:06;21.30;99.90
53272;DHT22;39160;48.580;7.756;2023-07-29T05:41:57;21.40;99.90
53272;DHT22;39160;48.580;7.756;2023-07-29T05:46:48;21.30;99.90
53272;DHT22;39160;48.580;7.756;2023-07-29T05:51:42;21.30;99.90
53272;DHT22;39160;48.580;7.756;2023-07-29T05:56:34;21.50;99.90
53272;DHT22;39160;48.580;7.756;2023-07-29T06:01:26;21.50;99.90
53272;DHT22;39160;48.580;7.756;2023-07-29T06:06:16;21.50;99.90
53272;DHT22;39160;48.580;7.756;2023-07-29T06:11:07;21.50;99.90
53272;DHT22;39160;48.580;7.756;2023-07-29T06:15:58;21.50;99.90
53272;DHT22;39160;48.580;7.756;2023-07-29T06:20:49;21.50;99.90
53272;DHT22;39160;48.580;7.756;2023-07-29T06:25:43;21.50;99.90
53272;DHT22;39160;48.580;7.756;2023-07-29T06:30:34;21.60;99.90
53272;DHT22;39160;48.580;7.756;2023-07-29T06:35:25;21.60;99.90
53272;DHT22;39160;48.580;7.756;2023-07-29T06:40:16;21.70;99.90
53272;DHT22;39160;48.580;7.756;2023-07-29T06:45:08;21.80;99.90
53272;DHT22;39160;48.580;7.756;2023-07-29T06:49:58;21.90;99.90
53272;DHT22;39160;48.580;7.756;2023-07-29T06:54:49;22.00;99.90
53272;DHT22;39160;48.580;7.756;2023-07-29T06:59:40;21.90;99.90
53272;DHT22;39160;48.580;7.756;2023-07-29T07:04:31;21.90;99.90
53272;DHT22;39160;48.580;7.756;2023-07-29T07:09:22;22.20;99.90
53272;DHT22;39160;48.580;7.756;2023-07-29T07:14:13;22.20;99.90
53272;DHT22;39160;48.580;7.756;2023-07-29T07:19:04;22.20;99.90
53272;DHT22;39160;48.580;7.756;2023-07-29T07:23:55;22.20;99.90
53272;DHT22;39160;48.580;7.756;2023-07-29T07:28:46;22.20;99.90
53272;DHT22;39160;48.580;7.756;2023-07-29T07:33:37;22.30;99.90
53272;DHT22;39160;48.580;7.756;2023-07-29T07:38:28;22.30;99.90
53272;DHT22;39160;48.580;7.756;2023-07-29T07:43:19;22.40;99.90
53272;DHT22;39160;48.580;7.756;2023-07-29T07:48:10;22.50;99.90
53272;DHT22;39160;48.580;7.756;2023-07-29T07:53:03;22.50;99.90
53272;DHT22;39160;48.580;7.756;2023-07-29T07:57:54;22.50;99.90
53272;DHT22;39160;48.580;7.756;2023-07-29T08:02:46;22.60;99.90
53272;DHT22;39160;48.580;7.756;2023-07-29T08:07:37;22.60;99.90
53272;DHT22;39160;48.580;7.756;2023-07-29T08:12:28;22.80;99.90
53272;DHT22;39160;48.580;7.756;2023-07-29T08:17:19;22.90;99.90
53272;DHT22;39160;48.580;7.756;2023-07-29T08:22:09;22.80;99.90
53272;DHT22;39160;48.580;7.756;2023-07-29T08:27:00;22.80;99.90
53272;DHT22;39160;48.580;7.756;2023-07-29T08:31:51;22.80;99.90
53272;DHT22;39160;48.580;7.756;2023-07-29T08:36:42;22.80;99.90
53272;DHT22;39160;48.580;7.756;2023-07-29T08:41:40;22.80;99.90
53272;DHT22;39160;48.580;7.756;2023-07-29T08:46:32;22.70;99.90
53272;DHT22;39160;48.580;7.756;2023-07-29T08:51:24;22.60;99.90
53272;DHT22;39160;48.580;7.756;2023-07-29T08:56:15;22.50;99.90
53272;DHT22;39160;48.580;7.756;2023-07-29T09:01:06;22.50;99.90
53272;DHT22;39160;48.580;7.756;2023-07-29T09:05:58;22.50;99.90
53272;DHT22;39160;48.580;7.756;2023-07-29T09:10:48;22.50;99.90
53272;DHT22;39160;48.580;7.756;2023-07-29T09:15:39;22.60;99.90
53272;DHT22;39160;48.580;7.756;2023-07-29T09:20:33;22.60;99.90
53272;DHT22;39160;48.580;7.756;2023-07-29T09:25:25;22.70;99.90
53272;DHT22;39160;48.580;7.756;2023-07-29T09:30:16;22.80;99.90
53272;DHT22;39160;48.580;7.756;2023-07-29T09:35:11;22.90;99.90
53272;DHT22;39160;48.580;7.756;2023-07-29T09:40:02;23.00;99.90
53272;DHT22;39160;48.580;7.756;2023-07-29T09:44:53;23.00;99.90
53272;DHT22;39160;48.580;7.756;2023-07-29T09:49:44;23.10;99.90
53272;DHT22;39160;48.580;7.756;2023-07-29T09:54:36;23.10;99.90
53272;DHT22;39160;48.580;7.756;2023-07-29T09:59:27;23.20;99.90
53272;DHT22;39160;48.580;7.756;2023-07-29T10:04:17;23.20;99.90
53272;DHT22;39160;48.580;7.756;2023-07-29T10:09:11;23.20;99.90
53272;DHT22;39160;48.580;7.756;2023-07-29T10:14:03;23.30;99.90
53272;DHT22;39160;48.580;7.756;2023-07-29T10:18:54;23.30;99.90
53272;DHT22;39160;48.580;7.756;2023-07-29T10:23:47;23.50;99.90
53272;DHT22;39160;48.580;7.756;2023-07-29T10:28:41;23.50;99.90
53272;DHT22;39160;48.580;7.756;2023-07-29T10:33:37;23.60;99.90
53272;DHT22;39160;48.580;7.756;2023-07-29T10:38:28;23.70;99.90
53272;DHT22;39160;48.580;7.756;2023-07-29T10:53:29;23.80;99.90
53272;DHT22;39160;48.580;7.756;2023-07-29T10:58:21;23.90;99.90
53272;DHT22;39160;48.580;7.756;2023-07-29T11:03:13;23.90;99.90
53272;DHT22;39160;48.580;7.756;2023-07-29T11:08:22;24.00;99.90
53272;DHT22;39160;48.580;7.756;2023-07-29T11:13:13;24.10;99.90
53272;DHT22;39160;48.580;7.756;2023-07-29T11:18:05;24.20;99.90
53272;DHT22;39160;48.580;7.756;2023-07-29T11:22:58;24.20;99.90
53272;DHT22;39160;48.580;7.756;2023-07-29T11:27:53;24.30;99.90
53272;DHT22;39160;48.580;7.756;2023-07-29T11:32:45;24.30;99.90
53272;DHT22;39160;48.580;7.756;2023-07-29T11:37:36;24.40;99.90
53272;DHT22;39160;48.580;7.756;2023-07-29T11:42:28;24.40;99.90
53272;DHT22;39160;48.580;7.756;2023-07-29T11:47:19;24.50;99.90
53272;DHT22;39160;48.580;7.756;2023-07-29T11:52:10;24.50;99.90
53272;DHT22;39160;48.580;7.756;2023-07-29T11:57:01;24.50;99.90
53272;DHT22;39160;48.580;7.756;2023-07-29T12:01:54;24.50;99.90
53272;DHT22;39160;48.580;7.756;2023-07-29T12:06:44;24.60;99.90
53272;DHT22;39160;48.580;7.756;2023-07-29T12:11:36;24.80;99.90
53272;DHT22;39160;48.580;7.756;2023-07-29T12:16:30;24.90;99.90
53272;DHT22;39160;48.580;7.756;2023-07-29T12:21:25;24.90;99.90
53272;DHT22;39160;48.580;7.756;2023-07-29T12:26:15;25.10;99.90
53272;DHT22;39160;48.580;7.756;2023-07-29T12:31:07;25.10;99.90
53272;DHT22;39160;48.580;7.756;2023-07-29T12:35:58;25.10;99.90
53272;DHT22;39160;48.580;7.756;2023-07-29T12:40:49;25.10;99.90
53272;DHT22;39160;48.580;7.756;2023-07-29T12:45:40;25.10;99.90
53272;DHT22;39160;48.580;7.756;2023-07-29T12:50:31;25.20;99.90
53272;DHT22;39160;48.580;7.756;2023-07-29T12:55:22;25.20;99.90
53272;DHT22;39160;48.580;7.756;2023-07-29T13:00:13;25.20;99.90
53272;DHT22;39160;48.580;7.756;2023-07-29T13:05:04;25.30;99.90
53272;DHT22;39160;48.580;7.756;2023-07-29T13:09:55;25.30;99.90
53272;DHT22;39160;48.580;7.756;2023-07-29T13:14:45;25.40;99.90
53272;DHT22;39160;48.580;7.756;2023-07-29T13:19:36;25.40;99.90
53272;DHT22;39160;48.580;7.756;2023-07-29T13:24:26;25.40;99.90
53272;DHT22;39160;48.580;7.756;2023-07-29T13:29:17;25.40;99.90
53272;DHT22;39160;48.580;7.756;2023-07-29T13:34:08;25.40;99.90
53272;DHT22;39160;48.580;7.756;2023-07-29T13:38:58;25.40;99.90
53272;DHT22;39160;48.580;7.756;2023-07-29T13:43:49;25.40;99.90
53272;DHT22;39160;48.580;7.756;2023-07-29T13:48:39;25.40;99.90
53272;DHT22;39160;48.580;7.756;2023-07-29T13:53:30;25.40;99.90
53272;DHT22;39160;48.580;7.756;2023-07-29T13:58:21;25.50;99.90
53272;DHT22;39160;48.580;7.756;2023-07-29T14:03:11;25.50;99.90
53272;DHT22;39160;48.580;7.756;2023-07-29T14:08:02;25.60;99.90
53272;DHT22;39160;48.580;7.756;2023-07-29T14:12:52;25.70;99.90
53272;DHT22;39160;48.580;7.756;2023-07-29T14:17:43;25.80;99.90
53272;DHT22;39160;48.580;7.756;2023-07-29T14:22:35;25.90;99.90
53272;DHT22;39160;48.580;7.756;2023-07-29T14:27:26;26.10;99.90
53272;DHT22;39160;48.580;7.756;2023-07-29T14:32:17;26.10;99.90
53272;DHT22;39160;48.580;7.756;2023-07-29T14:37:07;26.40;99.90
53272;DHT22;39160;48.580;7.756;2023-07-29T14:41:58;26.90;99.90
53272;DHT22;39160;48.580;7.756;2023-07-29T14:46:49;27.00;99.90
53272;DHT22;39160;48.580;7.756;2023-07-29T14:51:39;27.00;99.90
53272;DHT22;39160;48.580;7.756;2023-07-29T14:56:30;26.90;99.90
53272;DHT22;39160;48.580;7.756;2023-07-29T15:01:20;27.10;99.90
53272;DHT22;39160;48.580;7.756;2023-07-29T15:06:11;27.50;99.90
53272;DHT22;39160;48.580;7.756;2023-07-29T15:11:02;27.80;99.90
53272;DHT22;39160;48.580;7.756;2023-07-29T15:15:52;27.80;99.90
53272;DHT22;39160;48.580;7.756;2023-07-29T15:20:43;27.70;99.90
53272;DHT22;39160;48.580;7.756;2023-07-29T15:25:34;27.30;99.90
53272;DHT22;39160;48.580;7.756;2023-07-29T15:30:25;27.20;99.90
53272;DHT22;39160;48.580;7.756;2023-07-29T15:35:16;27.20;99.90
53272;DHT22;39160;48.580;7.756;2023-07-29T15:40:07;27.00;99.90
53272;DHT22;39160;48.580;7.756;2023-07-29T15:44:58;26.80;99.90
53272;DHT22;39160;48.580;7.756;2023-07-29T15:49:48;26.70;99.90
53272;DHT22;39160;48.580;7.756;2023-07-29T15:54:39;26.60;99.90
53272;DHT22;39160;48.580;7.756;2023-07-29T15:59:30;26.30;99.90
53272;DHT22;39160;48.580;7.756;2023-07-29T16:04:21;26.10;99.90
53272;DHT22;39160;48.580;7.756;2023-07-29T16:09:11;26.10;99.90
53272;DHT22;39160;48.580;7.756;2023-07-29T16:14:02;26.20;99.90
53272;DHT22;39160;48.580;7.756;2023-07-29T16:18:52;26.40;99.90
53272;DHT22;39160;48.580;7.756;2023-07-29T16:23:43;26.30;99.90
53272;DHT22;39160;48.580;7.756;2023-07-29T16:28:33;26.40;99.90
53272;DHT22;39160;48.580;7.756;2023-07-29T16:33:24;26.60;99.90
53272;DHT22;39160;48.580;7.756;2023-07-29T16:38:15;26.90;99.90
53272;DHT22;39160;48.580;7.756;2023-07-29T16:43:05;27.40;99.90
53272;DHT22;39160;48.580;7.756;2023-07-29T16:47:56;27.90;99.90
53272;DHT22;39160;48.580;7.756;2023-07-29T16:52:47;28.40;99.90
53272;DHT22;39160;48.580;7.756;2023-07-29T16:57:39;28.50;99.90
53272;DHT22;39160;48.580;7.756;2023-07-29T17:02:29;28.40;99.90
53272;DHT22;39160;48.580;7.756;2023-07-29T17:07:20;28.00;99.90
53272;DHT22;39160;48.580;7.756;2023-07-29T17:12:11;27.40;99.90
53272;DHT22;39160;48.580;7.756;2023-07-29T17:17:02;27.00;99.90
53272;DHT22;39160;48.580;7.756;2023-07-29T17:21:53;26.70;99.90
53272;DHT22;39160;48.580;7.756;2023-07-29T17:26:43;26.80;99.90
53272;DHT22;39160;48.580;7.756;2023-07-29T17:31:34;26.70;99.90
53272;DHT22;39160;48.580;7.756;2023-07-29T17:36:24;26.70;99.90
53272;DHT22;39160;48.580;7.756;2023-07-29T17:41:15;26.70;99.90
53272;DHT22;39160;48.580;7.756;2023-07-29T17:46:05;26.80;99.90
53272;DHT22;39160;48.580;7.756;2023-07-29T17:50:56;26.80;99.90
53272;DHT22;39160;48.580;7.756;2023-07-29T17:55:47;26.70;99.90
53272;DHT22;39160;48.580;7.756;2023-07-29T18:00:38;26.60;99.90
53272;DHT22;39160;48.580;7.756;2023-07-29T18:05:28;26.60;99.90
53272;DHT22;39160;48.580;7.756;2023-07-29T18:10:19;26.70;99.90
53272;DHT22;39160;48.580;7.756;2023-07-29T18:15:10;26.60;99.90
53272;DHT22;39160;48.580;7.756;2023-07-29T18:20:01;26.70;99.90
53272;DHT22;39160;48.580;7.756;2023-07-29T18:24:52;26.60;99.90
53272;DHT22;39160;48.580;7.756;2023-07-29T18:29:43;26.60;99.90
53272;DHT22;39160;48.580;7.756;2023-07-29T18:34:33;26.50;99.90
53272;DHT22;39160;48.580;7.756;2023-07-29T18:39:24;26.50;99.90
53272;DHT22;39160;48.580;7.756;2023-07-29T18:44:14;26.50;99.90
53272;DHT22;39160;48.580;7.756;2023-07-29T18:49:05;26.50;99.90
53272;DHT22;39160;48.580;7.756;2023-07-29T18:53:58;26.40;99.90
53272;DHT22;39160;48.580;7.756;2023-07-29T18:58:48;26.40;99.90
53272;DHT22;39160;48.580;7.756;2023-07-29T19:03:39;26.40;99.90
53272;DHT22;39160;48.580;7.756;2023-07-29T19:08:32;26.40;99.90
53272;DHT22;39160;48.580;7.756;2023-07-29T19:13:22;26.30;99.90
53272;DHT22;39160;48.580;7.756;2023-07-29T19:18:13;26.10;99.90
53272;DHT22;39160;48.580;7.756;2023-07-29T19:23:03;26.20;99.90
53272;DHT22;39160;48.580;7.756;2023-07-29T19:27:54;26.10;99.90
53272;DHT22;39160;48.580;7.756;2023-07-29T19:32:45;26.00;99.90
53272;DHT22;39160;48.580;7.756;2023-07-29T19:37:35;26.00;99.90
53272;DHT22;39160;48.580;7.756;2023-07-29T19:42:26;26.00;99.90
53272;DHT22;39160;48.580;7.756;2023-07-29T19:47:17;26.00;99.90
53272;DHT22;39160;48.580;7.756;2023-07-29T19:52:08;26.10;99.90
53272;DHT22;39160;48.580;7.756;2023-07-29T19:56:58;25.90;99.90
53272;DHT22;39160;48.580;7.756;2023-07-29T20:01:49;26.00;99.90
53272;DHT22;39160;48.580;7.756;2023-07-29T20:06:40;25.90;99.90
53272;DHT22;39160;48.580;7.756;2023-07-29T20:11:30;25.70;99.90
53272;DHT22;39160;48.580;7.756;2023-07-29T20:16:21;25.70;99.90
53272;DHT22;39160;48.580;7.756;2023-07-29T20:21:13;25.60;99.90
53272;DHT22;39160;48.580;7.756;2023-07-29T20:26:04;25.50;99.90
53272;DHT22;39160;48.580;7.756;2023-07-29T20:30:56;25.50;99.90
53272;DHT22;39160;48.580;7.756;2023-07-29T20:35:57;25.50;99.90
53272;DHT22;39160;48.580;7.756;2023-07-29T20:40:54;25.50;99.90
53272;DHT22;39160;48.580;7.756;2023-07-29T20:45:45;25.40;99.90
53272;DHT22;39160;48.580;7.756;2023-07-29T20:50:40;25.50;99.90
53272;DHT22;39160;48.580;7.756;2023-07-29T20:55:30;25.40;99.90
53272;DHT22;39160;48.580;7.756;2023-07-29T21:00:21;25.30;99.90
53272;DHT22;39160;48.580;7.756;2023-07-29T21:05:12;25.40;99.90
53272;DHT22;39160;48.580;7.756;2023-07-29T21:10:03;25.40;99.90
53272;DHT22;39160;48.580;7.756;2023-07-29T21:14:53;25.40;99.90
53272;DHT22;39160;48.580;7.756;2023-07-29T21:19:44;25.30;99.90
53272;DHT22;39160;48.580;7.756;2023-07-29T21:24:35;25.30;99.90
53272;DHT22;39160;48.580;7.756;2023-07-29T21:29:26;25.10;99.90
53272;DHT22;39160;48.580;7.756;2023-07-29T21:34:17;24.90;99.90
53272;DHT22;39160;48.580;7.756;2023-07-29T21:39:07;25.00;99.90
53272;DHT22;39160;48.580;7.756;2023-07-29T21:43:58;25.00;99.90
53272;DHT22;39160;48.580;7.756;2023-07-29T21:48:49;25.10;99.90
53272;DHT22;39160;48.580;7.756;2023-07-29T21:53:39;25.10;99.90
53272;DHT22;39160;48.580;7.756;2023-07-29T21:58:30;25.00;99.90
53272;DHT22;39160;48.580;7.756;2023-07-29T22:03:21;24.90;99.90
53272;DHT22;39160;48.580;7.756;2023-07-29T22:08:11;24.90;99.90
53272;DHT22;39160;48.580;7.756;2023-07-29T22:13:02;24.90;99.90
53272;DHT22;39160;48.580;7.756;2023-07-29T22:17:53;24.70;99.90
53272;DHT22;39160;48.580;7.756;2023-07-29T22:22:43;24.40;99.90
53272;DHT22;39160;48.580;7.756;2023-07-29T22:27:34;24.10;99.90
53272;DHT22;39160;48.580;7.756;2023-07-29T22:32:24;24.00;99.90
53272;DHT22;39160;48.580;7.756;2023-07-29T22:37:15;24.00;99.90
53272;DHT22;39160;48.580;7.756;2023-07-29T22:42:06;23.90;99.90
53272;DHT22;39160;48.580;7.756;2023-07-29T22:46:56;23.90;99.90
53272;DHT22;39160;48.580;7.756;2023-07-29T22:51:47;24.00;99.90
53272;DHT22;39160;48.580;7.756;2023-07-29T22:56:38;23.90;99.90
53272;DHT22;39160;48.580;7.756;2023-07-29T23:01:28;23.90;99.90
53272;DHT22;39160;48.580;7.756;2023-07-29T23:06:19;23.80;99.90
53272;DHT22;39160;48.580;7.756;2023-07-29T23:11:10;23.70;99.90
53272;DHT22;39160;48.580;7.756;2023-07-29T23:16:01;23.60;99.90
53272;DHT22;39160;48.580;7.756;2023-07-29T23:20:52;23.50;99.90
53272;DHT22;39160;48.580;7.756;2023-07-29T23:25:43;23.50;99.90
53272;DHT22;39160;48.580;7.756;2023-07-29T23:30:34;23.40;99.90
53272;DHT22;39160;48.580;7.756;2023-07-29T23:35:25;23.40;99.90
53272;DHT22;39160;48.580;7.756;2023-07-29T23:40:15;23.40;99.90
53272;DHT22;39160;48.580;7.756;2023-07-29T23:45:06;23.40;99.90
53272;DHT22;39160;48.580;7.756;2023-07-29T23:49:57;23.40;99.90
53272;DHT22;39160;48.580;7.756;2023-07-29T23:54:47;23.40;99.90
53272;DHT22;39160;48.580;7.756;2023-07-29T23:59:38;23.40;99.90
